Time;durP1;ratioP1;P1;durP2;ratioP2;P2;SDS_P1;SDS_P2;PMS_P1;PMS_P2;Temp;Humidity;BMP_temperature;BMP_pressure;BME280_temperature;BME280_humidity;BME280_pressure;Samples;Min_cycle;Max_cycle;Signal;HPM_P1;HPM_P2
2021/08/14 00:01:13;;;;;;;8.15;2.03;;;15.10;99.90;;;;;;6281001;22;20026;-94
2021/08/14 00:03:38;;;;;;;10.05;2.00;;;15.10;99.90;;;;;;6281485;22;20055;-94
2021/08/14 00:06:04;;;;;;;11.63;2.83;;;15.10;99.90;;;;;;6281669;22;20035;-93
2021/08/14 00:08:29;;;;;;;13.77;2.63;;;15.10;99.90;;;;;;6281709;22;20091;-93
2021/08/14 00:10:55;;;;;;;11.10;1.98;;;15.10;99.90;;;;;;6281206;22;20035;-93
2021/08/14 00:13:21;;;;;;;14.23;2.53;;;15.10;99.90;;;;;;6281497;22;20003;-93
2021/08/14 00:15:46;;;;;;;10.73;3.30;;;15.10;99.90;;;;;;6281197;22;20090;-94
2021/08/14 00:18:12;;;;;;;10.95;2.50;;;15.10;99.90;;;;;;6280998;22;20011;-92
2021/08/14 00:20:38;;;;;;;12.43;2.45;;;15.00;99.90;;;;;;6281876;22;20018;-92
2021/08/14 00:23:03;;;;;;;10.00;2.70;;;15.10;99.90;;;;;;6281727;22;20086;-92
2021/08/14 00:25:30;;;;;;;19.13;2.97;;;15.00;99.90;;;;;;6280957;22;20042;-92
2021/08/14 00:27:55;;;;;;;11.75;2.30;;;15.10;99.90;;;;;;6282260;22;20090;-92
2021/08/14 00:30:21;;;;;;;7.35;2.17;;;15.00;99.90;;;;;;6281775;22;20031;-93
2021/08/14 00:32:52;;;;;;;10.63;2.42;;;15.00;99.90;;;;;;6282055;22;20006;-92
2021/08/14 00:35:18;;;;;;;;;;;15.00;99.90;;;;;;6282781;22;20007;-92
2021/08/14 00:37:43;;;;;;;15.23;2.85;;;15.00;99.90;;;;;;6282029;22;20310;-92
2021/08/14 00:40:10;;;;;;;7.90;2.13;;;15.00;99.90;;;;;;6281730;22;20015;-92
2021/08/14 00:42:36;;;;;;;11.95;2.05;;;15.00;99.90;;;;;;6281839;22;20049;-92
2021/08/14 00:45:02;;;;;;;9.02;2.15;;;15.00;99.90;;;;;;6281786;22;20052;-92
2021/08/14 00:47:28;;;;;;;7.28;2.00;;;15.00;99.90;;;;;;6282046;22;20007;-93
2021/08/14 00:49:54;;;;;;;9.80;2.00;;;15.00;99.90;;;;;;6282583;22;20054;-93
2021/08/14 00:52:20;;;;;;;7.47;2.03;;;15.10;99.90;;;;;;6284822;22;20003;-93
2021/08/14 00:54:46;;;;;;;16.02;2.80;;;15.00;99.90;;;;;;6283174;22;20007;-93
2021/08/14 00:57:15;;;;;;;7.30;2.50;;;15.10;99.90;;;;;;6281312;22;20435;-93
2021/08/14 00:59:42;;;;;;;8.55;2.20;;;15.10;99.90;;;;;;6280508;22;20034;-93
2021/08/14 01:02:08;;;;;;;10.02;2.42;;;15.10;99.90;;;;;;6280825;22;20008;-92
2021/08/14 01:04:34;;;;;;;11.30;2.10;;;15.10;99.90;;;;;;6284315;22;20030;-93
2021/08/14 01:07:00;;;;;;;11.35;2.28;;;15.10;99.90;;;;;;6284818;22;20014;-92
2021/08/14 01:09:29;;;;;;;9.10;2.45;;;15.10;99.90;;;;;;6285059;22;20033;-92
2021/08/14 01:11:59;;;;;;;12.40;1.98;;;15.10;99.90;;;;;;6285146;22;20011;-93
2021/08/14 01:14:25;;;;;;;7.32;2.05;;;15.10;99.90;;;;;;6284416;22;20082;-93
2021/08/14 01:16:51;;;;;;;11.82;2.17;;;15.10;99.90;;;;;;6284770;22;20425;-93
2021/08/14 01:19:21;;;;;;;19.15;3.58;;;15.10;99.90;;;;;;6285343;22;20030;-92
2021/08/14 01:21:51;;;;;;;9.20;2.42;;;15.10;99.90;;;;;;6286472;22;20068;-93
2021/08/14 01:24:18;;;;;;;9.98;2.10;;;15.10;99.90;;;;;;6295410;22;19999;-92
2021/08/14 01:26:44;;;;;;;11.85;2.28;;;15.10;99.90;;;;;;6296833;22;20007;-93
2021/08/14 01:29:10;;;;;;;13.10;2.25;;;15.10;99.90;;;;;;6293405;22;20010;-93
2021/08/14 01:31:36;;;;;;;9.95;2.50;;;15.10;99.90;;;;;;6291341;22;20007;-92
2021/08/14 01:34:02;;;;;;;12.10;2.35;;;15.10;99.90;;;;;;6287140;22;20097;-93
2021/08/14 01:36:28;;;;;;;10.45;2.05;;;15.10;99.90;;;;;;6287309;22;20330;-93
2021/08/14 01:39:00;;;;;;;8.65;2.10;;;15.10;99.90;;;;;;6286921;22;20434;-92
2021/08/14 01:41:26;;;;;;;5.95;1.80;;;15.10;99.90;;;;;;6286500;22;20023;-94
2021/08/14 01:44:03;;;;;;;13.60;2.22;;;15.10;99.90;;;;;;6286124;22;20338;-91
2021/08/14 01:46:32;;;;;;;13.45;2.80;;;15.10;99.90;;;;;;6285900;22;20007;-93
2021/08/14 01:48:58;;;;;;;11.52;2.10;;;15.10;99.90;;;;;;6285136;22;19999;-93
2021/08/14 01:51:25;;;;;;;9.80;2.22;;;15.20;99.90;;;;;;6285523;22;20449;-93
2021/08/14 01:53:54;;;;;;;8.70;2.10;;;15.10;99.90;;;;;;6285305;22;20503;-93
2021/08/14 01:56:20;;;;;;;7.60;2.20;;;15.20;99.90;;;;;;6286002;22;20007;-92
2021/08/14 01:58:47;;;;;;;11.68;2.45;;;15.20;99.90;;;;;;6284919;22;19999;-93
2021/08/14 02:01:13;;;;;;;10.95;2.58;;;15.20;99.90;;;;;;6285040;22;20015;-91
2021/08/14 02:03:39;;;;;;;12.07;2.33;;;15.20;99.90;;;;;;6285250;22;20072;-92
2021/08/14 02:06:07;;;;;;;14.32;2.25;;;15.20;99.90;;;;;;6285613;22;20007;-92
2021/08/14 02:08:37;;;;;;;8.05;2.28;;;15.20;99.90;;;;;;6284355;22;20015;-95
2021/08/14 02:11:14;;;;;;;8.93;2.30;;;15.20;99.90;;;;;;6284797;22;20018;-94
2021/08/14 02:13:42;;;;;;;10.70;2.13;;;15.20;99.90;;;;;;6283844;22;20010;-93
2021/08/14 02:16:07;;;;;;;6.95;1.73;;;15.20;99.90;;;;;;6282389;22;20003;-93
2021/08/14 02:18:33;;;;;;;5.25;2.00;;;15.10;99.90;;;;;;6283359;22;20002;-93
2021/08/14 02:20:59;;;;;;;11.02;1.90;;;15.20;99.90;;;;;;6283487;22;20015;-92
2021/08/14 02:23:25;;;;;;;10.13;2.00;;;15.10;99.90;;;;;;6283042;22;20010;-92
2021/08/14 02:25:50;;;;;;;9.35;2.40;;;15.20;99.90;;;;;;6284168;22;20015;-91
2021/08/14 02:28:16;;;;;;;10.32;2.08;;;15.10;99.90;;;;;;6283246;22;20003;-93
2021/08/14 02:30:42;;;;;;;11.95;2.33;;;15.20;99.90;;;;;;6283296;22;20003;-94
2021/08/14 02:33:07;;;;;;;6.78;1.83;;;15.10;99.90;;;;;;6282780;22;20004;-93
2021/08/14 02:35:36;;;;;;;12.20;2.25;;;15.10;99.90;;;;;;6282665;22;20003;-94
2021/08/14 02:38:01;;;;;;;10.13;2.38;;;15.20;99.90;;;;;;6282232;22;20007;-93
2021/08/14 02:40:27;;;;;;;9.02;2.35;;;15.20;99.90;;;;;;6282099;22;20015;-93
2021/08/14 02:42:53;;;;;;;6.25;1.98;;;15.20;99.90;;;;;;6281930;22;20011;-94
2021/08/14 02:45:19;;;;;;;10.88;2.20;;;15.20;99.90;;;;;;6282286;22;20012;-95
2021/08/14 02:47:44;;;;;;;18.63;3.08;;;15.20;99.90;;;;;;6281355;22;19995;-94
2021/08/14 02:50:10;;;;;;;10.93;2.70;;;15.20;99.90;;;;;;6282137;22;19999;-94
2021/08/14 02:52:36;;;;;;;5.30;1.95;;;15.20;99.90;;;;;;6281816;22;20053;-93
2021/08/14 02:55:02;;;;;;;7.90;2.40;;;15.10;99.90;;;;;;6281977;22;20422;-94
2021/08/14 02:57:28;;;;;;;12.30;2.70;;;15.20;99.90;;;;;;6281930;22;20003;-94
2021/08/14 02:59:54;;;;;;;14.50;2.58;;;15.20;99.90;;;;;;6281805;22;20007;-93
2021/08/14 03:02:19;;;;;;;11.85;2.67;;;15.20;99.90;;;;;;6281675;22;20015;-93
2021/08/14 03:04:45;;;;;;;12.93;2.30;;;15.20;99.90;;;;;;6280781;22;20000;-92
2021/08/14 03:07:11;;;;;;;10.05;2.15;;;15.20;99.90;;;;;;6281227;22;20000;-92
2021/08/14 03:09:36;;;;;;;12.50;2.08;;;15.20;99.90;;;;;;6280939;22;20017;-94
2021/08/14 03:12:02;;;;;;;8.73;2.22;;;15.10;99.90;;;;;;6281384;22;20014;-93
2021/08/14 03:14:31;;;;;;;10.68;2.20;;;15.10;99.90;;;;;;6281585;22;20427;-93
2021/08/14 03:16:56;;;;;;;11.00;3.42;;;15.20;99.90;;;;;;6282053;22;20049;-92
2021/08/14 03:19:22;;;;;;;11.23;2.05;;;15.20;99.90;;;;;;6281990;22;19999;-92
2021/08/14 03:21:48;;;;;;;13.15;2.65;;;15.20;99.90;;;;;;6282302;22;20007;-93
2021/08/14 03:24:13;;;;;;;12.98;2.42;;;15.20;99.90;;;;;;6282820;22;20003;-93
2021/08/14 03:26:39;;;;;;;11.90;2.30;;;15.20;99.90;;;;;;6282730;22;20414;-93
2021/08/14 03:29:05;;;;;;;8.85;2.17;;;15.10;99.90;;;;;;6286837;22;20006;-93
2021/08/14 03:31:30;;;;;;;12.40;2.45;;;15.20;99.90;;;;;;6286782;22;19996;-94
2021/08/14 03:33:57;;;;;;;12.32;2.28;;;15.10;99.90;;;;;;6281824;22;20008;-93
2021/08/14 03:36:23;;;;;;;11.35;2.63;;;15.10;99.90;;;;;;6281690;22;20003;-93
2021/08/14 03:38:49;;;;;;;9.18;2.00;;;15.10;99.90;;;;;;6281457;22;20449;-94
2021/08/14 03:41:14;;;;;;;6.88;1.80;;;15.10;99.90;;;;;;6281321;22;20029;-92
2021/08/14 03:43:40;;;;;;;11.13;2.10;;;15.10;99.90;;;;;;6281354;22;20086;-94
2021/08/14 03:46:06;;;;;;;12.55;2.42;;;15.10;99.90;;;;;;6281491;22;20014;-94
2021/08/14 03:48:32;;;;;;;11.50;2.53;;;15.10;99.90;;;;;;6281649;22;19995;-93
2021/08/14 03:50:58;;;;;;;13.95;2.40;;;15.10;99.90;;;;;;6281673;22;20056;-94
2021/08/14 03:53:23;;;;;;;5.55;2.20;;;15.10;99.90;;;;;;6281704;22;20029;-93
2021/08/14 03:55:49;;;;;;;10.98;2.58;;;15.10;99.90;;;;;;6281481;22;20015;-94
2021/08/14 03:58:15;;;;;;;9.63;2.10;;;15.10;99.90;;;;;;6281130;22;20010;-93
2021/08/14 04:00:41;;;;;;;11.27;2.00;;;15.10;99.90;;;;;;6281135;22;20004;-94
2021/08/14 04:03:07;;;;;;;12.02;2.15;;;15.00;99.90;;;;;;6281030;22;20007;-94
2021/08/14 04:05:32;;;;;;;13.93;2.30;;;15.00;99.90;;;;;;6281706;22;20006;-93
2021/08/14 04:07:59;;;;;;;13.60;3.15;;;15.00;99.90;;;;;;6282419;22;20486;-94
2021/08/14 04:10:25;;;;;;;17.42;2.58;;;15.00;99.90;;;;;;6286011;22;19999;-94
2021/08/14 04:12:51;;;;;;;13.57;2.90;;;15.00;99.90;;;;;;6288863;22;20038;-93
2021/08/14 04:15:17;;;;;;;19.40;3.08;;;15.00;99.90;;;;;;6280928;22;20034;-94
2021/08/14 04:17:43;;;;;;;14.38;2.92;;;15.00;99.90;;;;;;6281571;22;20090;-93
2021/08/14 04:20:09;;;;;;;12.40;2.10;;;15.00;99.90;;;;;;6281007;22;20592;-93
2021/08/14 04:22:35;;;;;;;13.13;2.33;;;15.00;99.90;;;;;;6280857;22;20090;-95
2021/08/14 04:25:01;;;;;;;16.05;2.67;;;14.90;99.90;;;;;;6281666;22;20007;-94
2021/08/14 04:27:27;;;;;;;11.32;2.10;;;14.90;99.90;;;;;;6281475;22;20017;-93
2021/08/14 04:29:52;;;;;;;14.38;2.88;;;14.90;99.90;;;;;;6281620;22;20092;-93
2021/08/14 04:32:18;;;;;;;17.40;2.53;;;14.90;99.90;;;;;;6280968;22;20026;-93
2021/08/14 04:34:43;;;;;;;8.50;1.75;;;14.90;99.90;;;;;;6281785;22;20003;-94
2021/08/14 04:37:09;;;;;;;13.90;2.95;;;14.90;99.90;;;;;;6281195;22;20319;-95
2021/08/14 04:39:35;;;;;;;7.00;1.90;;;14.90;99.90;;;;;;6281898;22;20423;-92
2021/08/14 04:42:01;;;;;;;7.18;2.30;;;14.90;99.90;;;;;;6282061;22;20086;-93
2021/08/14 04:44:26;;;;;;;7.53;2.50;;;14.90;99.90;;;;;;6282593;22;19999;-92
2021/08/14 04:46:52;;;;;;;11.32;2.38;;;14.90;99.90;;;;;;6281936;22;20007;-92
2021/08/14 04:49:18;;;;;;;9.75;2.50;;;14.90;99.90;;;;;;6282497;22;20023;-93
2021/08/14 04:51:43;;;;;;;17.75;2.47;;;14.90;99.90;;;;;;6283107;22;20012;-93
2021/08/14 04:54:09;;;;;;;11.35;2.47;;;14.80;99.90;;;;;;6283418;22;20033;-93
2021/08/14 04:56:34;;;;;;;9.93;2.45;;;14.80;99.90;;;;;;6293497;22;20381;-94
2021/08/14 04:59:00;;;;;;;9.60;2.30;;;14.80;99.90;;;;;;6296662;22;20020;-94
2021/08/14 05:01:26;;;;;;;12.77;2.80;;;14.80;99.90;;;;;;6292903;22;20011;-93
2021/08/14 05:03:54;;;;;;;13.00;2.60;;;14.80;99.90;;;;;;6290235;22;20007;-93
2021/08/14 05:06:23;;;;;;;10.82;2.58;;;14.80;99.90;;;;;;6287521;22;20010;-93
2021/08/14 05:08:48;;;;;;;10.73;2.65;;;14.80;99.90;;;;;;6283434;22;20004;-96
2021/08/14 05:11:17;;;;;;;12.38;2.58;;;14.80;99.90;;;;;;6282405;22;20078;-94
2021/08/14 05:13:43;;;;;;;10.27;2.60;;;14.80;99.90;;;;;;6283044;22;20030;-94
2021/08/14 05:16:08;;;;;;;9.98;2.58;;;14.80;99.90;;;;;;6282866;22;20007;-93
2021/08/14 05:18:34;;;;;;;9.75;2.45;;;14.80;99.90;;;;;;6283014;22;20031;-93
2021/08/14 05:21:00;;;;;;;11.05;2.78;;;14.80;99.90;;;;;;6282231;22;20022;-92
2021/08/14 05:23:25;;;;;;;16.08;3.10;;;14.80;99.90;;;;;;6282383;22;20003;-93
2021/08/14 05:25:51;;;;;;;12.25;2.70;;;14.80;99.90;;;;;;6282235;22;20015;-92
2021/08/14 05:28:17;;;;;;;13.80;3.10;;;14.80;99.90;;;;;;6281066;22;20010;-94
2021/08/14 05:30:42;;;;;;;11.07;2.80;;;14.80;99.90;;;;;;6281023;22;20003;-95
2021/08/14 05:33:08;;;;;;;9.25;2.38;;;14.90;99.90;;;;;;6281930;22;20067;-94
2021/08/14 05:35:34;;;;;;;10.30;2.70;;;14.90;99.90;;;;;;6281673;22;20423;-94
2021/08/14 05:38:00;;;;;;;13.88;3.00;;;14.90;99.90;;;;;;6281272;22;20026;-94
2021/08/14 05:40:26;;;;;;;16.05;2.95;;;14.90;99.90;;;;;;6281302;22;20431;-94
2021/08/14 05:42:51;;;;;;;8.60;2.70;;;14.90;99.90;;;;;;6281111;22;20022;-94
2021/08/14 05:45:17;;;;;;;11.40;2.70;;;14.90;99.90;;;;;;6280830;22;20006;-94
2021/08/14 05:47:42;;;;;;;14.10;3.03;;;14.90;99.90;;;;;;6281212;22;20038;-93
2021/08/14 05:50:09;;;;;;;11.45;2.70;;;14.90;99.90;;;;;;6281800;22;20076;-94
2021/08/14 05:52:34;;;;;;;14.23;2.60;;;15.00;99.90;;;;;;6283732;22;20029;-93
2021/08/14 05:55:00;;;;;;;9.52;2.90;;;15.00;99.90;;;;;;6283085;22;20007;-93
2021/08/14 05:57:26;;;;;;;12.60;2.50;;;15.00;99.90;;;;;;6283209;22;20015;-94
2021/08/14 05:59:51;;;;;;;11.00;2.80;;;15.00;99.90;;;;;;6283529;22;20101;-93
2021/08/14 06:02:17;;;;;;;12.68;3.30;;;15.00;99.90;;;;;;6283897;22;20442;-94
2021/08/14 06:04:43;;;;;;;9.57;2.47;;;15.00;99.90;;;;;;6282293;22;20010;-95
2021/08/14 06:07:09;;;;;;;18.30;3.75;;;15.00;99.90;;;;;;6282810;22;20010;-93
2021/08/14 06:09:34;;;;;;;13.35;3.35;;;15.10;99.90;;;;;;6282573;22;20457;-94
2021/08/14 06:12:00;;;;;;;13.50;4.22;;;15.10;99.90;;;;;;6282732;22;20012;-94
2021/08/14 06:14:26;;;;;;;14.80;2.63;;;15.10;99.90;;;;;;6286950;22;20031;-94
2021/08/14 06:16:52;;;;;;;14.93;3.70;;;15.10;99.90;;;;;;6282338;22;20087;-94
2021/08/14 06:19:18;;;;;;;14.07;2.70;;;15.10;99.90;;;;;;6310238;22;20478;-95
2021/08/14 06:21:43;;;;;;;10.95;2.75;;;15.10;99.90;;;;;;6310099;22;20315;-94
2021/08/14 06:24:09;;;;;;;13.20;2.55;;;15.10;99.90;;;;;;6283335;22;20004;-94
2021/08/14 06:26:35;;;;;;;10.40;2.33;;;15.20;99.90;;;;;;6282086;22;20013;-95
2021/08/14 06:29:00;;;;;;;16.13;2.97;;;15.20;99.90;;;;;;6282010;22;20014;-95
2021/08/14 06:31:26;;;;;;;16.63;3.05;;;15.20;99.90;;;;;;6279830;22;20003;-94
2021/08/14 06:33:52;;;;;;;14.82;3.00;;;15.20;99.90;;;;;;6281731;22;20427;-95
2021/08/14 06:36:17;;;;;;;16.58;3.30;;;15.30;99.90;;;;;;6282463;22;20038;-95
2021/08/14 06:38:43;;;;;;;14.43;3.58;;;15.30;99.90;;;;;;6283541;22;20011;-96
2021/08/14 06:41:09;;;;;;;12.73;2.92;;;15.40;99.90;;;;;;6283139;22;20358;-95
2021/08/14 06:43:34;;;;;;;7.88;2.55;;;15.40;99.90;;;;;;6282767;22;20034;-94
2021/08/14 06:46:00;;;;;;;7.75;2.58;;;15.40;99.90;;;;;;6283614;22;20007;-95
2021/08/14 06:48:26;;;;;;;9.05;2.33;;;15.50;99.90;;;;;;6287126;22;20007;-94
2021/08/14 06:50:52;;;;;;;10.85;3.47;;;15.50;99.90;;;;;;6282555;22;20003;-94
2021/08/14 06:53:18;;;;;;;13.40;3.75;;;15.50;99.90;;;;;;6283180;22;20007;-95
2021/08/14 06:55:43;;;;;;;13.20;2.65;;;15.50;99.90;;;;;;6283919;22;20431;-93
2021/08/14 06:58:09;;;;;;;18.30;2.80;;;15.50;99.90;;;;;;6282046;22;20003;-90
2021/08/14 07:00:35;;;;;;;18.05;4.22;;;15.60;99.90;;;;;;6281800;22;20010;-91
2021/08/14 07:03:00;;;;;;;17.90;3.08;;;15.60;99.90;;;;;;6281641;22;20003;-93
2021/08/14 07:05:26;;;;;;;13.75;3.08;;;15.60;99.90;;;;;;6281827;22;20008;-89
2021/08/14 07:07:52;;;;;;;12.23;3.13;;;15.70;99.90;;;;;;6282234;22;20082;-92
2021/08/14 07:10:17;;;;;;;11.77;3.28;;;15.70;99.90;;;;;;6257271;22;20018;-92
2021/08/14 07:12:44;;;;;;;13.80;2.95;;;15.70;99.90;;;;;;6282982;22;20555;-90
2021/08/14 07:15:10;;;;;;;11.68;3.00;;;15.70;99.90;;;;;;6282304;22;20120;-92
2021/08/14 07:17:36;;;;;;;11.15;3.38;;;15.80;99.90;;;;;;6283240;22;19999;-93
2021/08/14 07:20:03;;;;;;;10.02;3.35;;;15.80;99.90;;;;;;6284291;22;20377;-92
2021/08/14 07:22:28;;;;;;;15.32;3.88;;;15.80;99.90;;;;;;6280146;22;20003;-90
2021/08/14 07:24:54;;;;;;;16.23;2.85;;;15.90;99.90;;;;;;6278436;22;20064;-90
2021/08/14 07:27:19;;;;;;;9.73;3.13;;;15.90;99.90;;;;;;6280344;22;20003;-92
2021/08/14 07:29:48;;;;;;;7.93;2.78;;;15.90;99.90;;;;;;6294067;22;20370;-96
2021/08/14 07:35:20;;;;;;;9.90;3.88;;;16.00;99.90;;;;;;6273568;22;20069;-94
2021/08/14 07:37:47;;;;;;;9.35;4.22;;;16.10;99.90;;;;;;6272768;22;20454;-94
2021/08/14 07:40:21;;;;;;;11.50;3.75;;;16.10;99.90;;;;;;6259082;22;20047;-93
2021/08/14 07:42:47;;;;;;;12.93;3.90;;;16.10;99.90;;;;;;6253379;22;20007;-93
2021/08/14 07:45:17;;;;;;;11.82;3.28;;;16.10;99.90;;;;;;6256327;22;20003;-94
2021/08/14 07:47:48;;;;;;;9.32;3.13;;;16.20;99.90;;;;;;6287323;22;19995;-96
2021/08/14 07:50:21;;;;;;;;;;;16.20;99.90;;;;;;6290504;22;19995;-95
2021/08/14 07:52:47;;;;;;;14.35;4.05;;;16.30;99.90;;;;;;6291138;22;19899;-94
2021/08/14 07:55:13;;;;;;;12.55;4.82;;;16.30;99.90;;;;;;6284916;22;20012;-95
2021/08/14 07:57:43;;;;;;;17.05;6.50;;;16.40;99.90;;;;;;6283065;22;20094;-94
2021/08/14 08:00:16;;;;;;;12.80;4.72;;;16.40;99.90;;;;;;6284307;22;20094;-95
2021/08/14 08:02:45;;;;;;;11.55;4.00;;;16.50;99.90;;;;;;6287461;22;20004;-95
2021/08/14 08:05:12;;;;;;;14.63;4.40;;;16.60;99.90;;;;;;6288225;22;20049;-95
2021/08/14 08:07:43;;;;;;;12.75;4.82;;;16.70;99.90;;;;;;6292657;22;20082;-95
2021/08/14 08:10:15;;;;;;;10.98;4.43;;;16.70;99.90;;;;;;6289831;22;20014;-95
2021/08/14 08:12:41;;;;;;;10.07;4.22;;;16.80;99.90;;;;;;6289356;22;20007;-94
2021/08/14 08:15:09;;;;;;;10.20;4.03;;;16.80;99.90;;;;;;6291295;22;20007;-95
2021/08/14 08:17:35;;;;;;;10.27;4.25;;;16.80;99.90;;;;;;6290661;22;20003;-95
2021/08/14 08:20:01;;;;;;;14.30;3.70;;;16.90;99.90;;;;;;6286905;22;20003;-95
2021/08/14 08:22:28;;;;;;;9.68;3.45;;;17.00;99.90;;;;;;6289001;22;20007;-95
2021/08/14 08:27:48;;;;;;;9.55;3.30;;;17.10;99.90;;;;;;6324665;22;20074;-95
2021/08/14 08:30:16;;;;;;;13.73;3.25;;;17.20;99.90;;;;;;6326545;22;19998;-96
2021/08/14 08:32:44;;;;;;;10.15;3.00;;;17.20;99.90;;;;;;6324004;22;19999;-95
2021/08/14 08:35:15;;;;;;;12.18;3.60;;;17.20;99.90;;;;;;6329360;22;20018;-95
2021/08/14 08:37:41;;;;;;;;;;;17.30;99.90;;;;;;6323223;22;20454;-94
2021/08/14 08:40:22;;;;;;;10.07;3.10;;;17.40;99.90;;;;;;6319128;22;19916;-95
2021/08/14 08:42:49;;;;;;;10.32;2.63;;;17.40;99.90;;;;;;6323479;22;20120;-95
2021/08/14 08:45:16;;;;;;;10.18;3.03;;;17.40;99.90;;;;;;6325626;22;20422;-96
2021/08/14 08:47:46;;;;;;;10.70;2.70;;;17.50;99.90;;;;;;6304396;22;20070;-96
2021/08/14 08:50:22;;;;;;;8.85;2.45;;;17.70;99.90;;;;;;6296199;22;20022;-95
2021/08/14 08:52:48;;;;;;;7.47;2.58;;;17.90;99.60;;;;;;6293395;22;20003;-95
2021/08/14 08:55:14;;;;;;;14.55;2.78;;;17.90;99.20;;;;;;6292162;22;20066;-96
2021/08/14 08:57:44;;;;;;;10.27;2.00;;;18.00;98.90;;;;;;6291623;22;20003;-95
2021/08/14 09:00:16;;;;;;;7.65;2.10;;;18.20;98.80;;;;;;6291847;22;20034;-94
2021/08/14 09:05:21;;;;;;;10.55;2.25;;;18.40;97.20;;;;;;6328284;22;20312;-96
2021/08/14 09:07:50;;;;;;;6.78;1.92;;;18.50;96.60;;;;;;6332750;22;20042;-96
2021/08/14 09:10:23;;;;;;;7.63;1.63;;;18.50;95.50;;;;;;6350736;22;19995;-95
2021/08/14 09:12:49;;;;;;;8.40;1.85;;;18.60;94.90;;;;;;6328147;22;20085;-96
2021/08/14 09:15:29;;;;;;;6.15;2.05;;;18.60;93.90;;;;;;6327938;22;19995;-96
2021/08/14 09:18:06;;;;;;;7.13;2.30;;;18.60;93.40;;;;;;6318839;22;20007;-94
2021/08/14 09:20:45;;;;;;;8.05;2.25;;;18.70;93.30;;;;;;6320999;22;20056;-95
2021/08/14 09:23:20;;;;;;;9.85;2.10;;;18.90;93.00;;;;;;6349995;22;20069;-95
2021/08/14 09:25:53;;;;;;;5.53;1.95;;;19.10;92.60;;;;;;6338110;22;19991;-96
2021/08/14 09:33:37;;;;;;;7.78;2.20;;;19.20;90.80;;;;;;6343312;22;20037;-96
2021/08/14 09:38:53;;;;;;;7.95;2.35;;;19.20;90.80;;;;;;6212325;22;20023;-95
2021/08/14 09:41:21;;;;;;;9.30;2.33;;;19.30;91.00;;;;;;6299179;22;20027;-94
2021/08/14 09:46:38;;;;;;;9.88;2.65;;;19.40;90.20;;;;;;6267943;22;20034;-93
2021/08/14 09:49:04;;;;;;;11.73;2.40;;;19.30;90.00;;;;;;6318366;22;19999;-93
2021/08/14 09:51:33;;;;;;;20.38;3.00;;;19.30;90.10;;;;;;6285989;22;20311;-93
2021/08/14 09:54:01;;;;;;;11.80;2.10;;;19.20;89.90;;;;;;6291798;22;20011;-93
2021/08/14 09:56:32;;;;;;;5.07;2.00;;;19.20;89.70;;;;;;6291276;22;20003;-95
2021/08/14 09:58:58;;;;;;;8.43;2.17;;;19.10;89.50;;;;;;6295990;22;20025;-96
2021/08/14 10:01:24;;;;;;;6.22;2.42;;;19.00;89.70;;;;;;6297483;22;20132;-94
2021/08/14 10:03:51;;;;;;;13.35;2.53;;;18.90;89.20;;;;;;6315422;22;20057;-94
2021/08/14 10:06:20;;;;;;;6.35;2.80;;;18.80;89.20;;;;;;6289143;22;20052;-94
2021/08/14 10:08:46;;;;;;;12.38;3.58;;;18.80;89.60;;;;;;6290279;22;20033;-94
2021/08/14 10:11:13;;;;;;;4.72;2.90;;;18.70;89.40;;;;;;6293942;22;20033;-95
2021/08/14 10:13:40;;;;;;;12.75;3.53;;;18.80;89.50;;;;;;6302382;22;20003;-94
2021/08/14 10:16:08;;;;;;;7.72;3.03;;;18.70;89.20;;;;;;6292287;22;19996;-95
2021/08/14 10:18:34;;;;;;;11.75;3.72;;;18.70;89.50;;;;;;6291632;22;20003;-95
2021/08/14 10:21:00;;;;;;;8.43;3.15;;;18.80;89.80;;;;;;6291357;22;20070;-96
2021/08/14 10:23:27;;;;;;;12.93;4.20;;;18.90;89.80;;;;;;6291122;22;20046;-94
2021/08/14 10:26:06;;;;;;;9.63;3.85;;;18.90;89.60;;;;;;6291082;22;20003;-95
2021/08/14 10:28:52;;;;;;;8.40;4.22;;;18.90;88.30;;;;;;6291787;22;19999;-94
2021/08/14 10:31:30;;;;;;;9.70;4.70;;;18.90;88.00;;;;;;6312566;22;20089;-95
2021/08/14 10:33:59;;;;;;;8.27;4.30;;;18.90;87.80;;;;;;6285682;22;20074;-95
2021/08/14 10:36:27;;;;;;;8.48;4.20;;;19.00;87.90;;;;;;6287139;22;20030;-94
2021/08/14 10:38:53;;;;;;;8.85;3.70;;;19.00;87.50;;;;;;6315092;22;20010;-93
2021/08/14 10:41:20;;;;;;;9.32;4.20;;;19.00;87.70;;;;;;6290414;22;20554;-92
2021/08/14 10:43:55;;;;;;;11.30;3.70;;;19.00;87.80;;;;;;6300342;22;20011;-94
2021/08/14 10:46:51;;;;;;;9.32;3.47;;;19.10;87.80;;;;;;6299581;22;20015;-94
2021/08/14 10:49:37;;;;;;;5.47;2.80;;;19.20;87.70;;;;;;6274426;22;19996;-94
2021/08/14 10:52:07;;;;;;;9.63;3.28;;;19.20;87.60;;;;;;6317784;22;19995;-95
2021/08/14 10:54:35;;;;;;;7.93;2.88;;;19.20;88.00;;;;;;6290478;22;20410;-90
2021/08/14 10:57:08;;;;;;;7.50;3.17;;;19.10;87.90;;;;;;6284686;22;20081;-89
2021/08/14 10:59:39;;;;;;;9.70;2.55;;;19.10;87.90;;;;;;6283746;22;20011;-89
2021/08/14 11:02:12;;;;;;;10.25;3.22;;;19.10;87.80;;;;;;6282811;22;20105;-91
2021/08/14 11:04:56;;;;;;;9.73;2.60;;;19.10;88.00;;;;;;6284308;22;20146;-90
2021/08/14 11:07:22;;;;;;;6.05;2.83;;;19.10;88.10;;;;;;6283306;22;20007;-91
2021/08/14 11:09:54;;;;;;;8.43;2.50;;;19.10;87.80;;;;;;6282106;22;20060;-90
2021/08/14 11:17:03;;;;;;;8.45;3.05;;;19.00;87.50;;;;;;5081085;28;20162;-89
2021/08/14 11:19:51;;;;;;;13.77;4.57;;;19.00;88.20;;;;;;5011712;28;20035;-90
2021/08/14 11:22:32;;;;;;;9.20;3.63;;;19.00;88.30;;;;;;5026883;28;20050;-92
2021/08/14 11:25:03;;;;;;;10.27;3.47;;;19.00;89.50;;;;;;5059106;28;20029;-91
2021/08/14 11:27:35;;;;;;;9.68;3.40;;;19.00;88.80;;;;;;5030403;28;20385;-91
2021/08/14 11:30:01;;;;;;;11.10;2.75;;;19.00;88.90;;;;;;5030868;28;20680;-95
2021/08/14 11:32:27;;;;;;;8.65;3.20;;;18.90;88.80;;;;;;5030111;28;20053;-91
2021/08/14 11:34:54;;;;;;;4.85;3.22;;;18.90;88.50;;;;;;5031056;28;20068;-94
2021/08/14 11:37:21;;;;;;;11.23;4.05;;;18.90;88.70;;;;;;5031066;28;20029;-90
2021/08/14 11:39:54;;;;;;;5.38;2.65;;;18.90;88.60;;;;;;5043519;28;20056;-93
2021/08/14 11:42:20;;;;;;;10.48;2.88;;;18.90;88.60;;;;;;5067106;28;20038;-95
2021/08/14 11:44:54;;;;;;;8.10;2.47;;;18.90;88.60;;;;;;5051854;28;20033;-91
2021/08/14 11:47:31;;;;;;;6.20;2.60;;;19.00;88.80;;;;;;5065230;28;20073;-94
2021/08/14 11:49:58;;;;;;;7.97;2.72;;;19.00;88.50;;;;;;5056008;28;20079;-94
2021/08/14 11:52:25;;;;;;;7.20;2.20;;;19.10;88.30;;;;;;5054383;28;20029;-93
2021/08/14 11:55:17;;;;;;;12.32;2.63;;;19.10;87.70;;;;;;5051039;28;20025;-90
2021/08/14 11:57:43;;;;;;;7.15;2.88;;;19.10;87.70;;;;;;5047327;28;20040;-91
2021/08/14 12:00:17;;;;;;;7.28;2.85;;;19.10;87.40;;;;;;5047605;28;20422;-95
2021/08/14 12:02:49;;;;;;;6.30;2.20;;;19.00;85.70;;;;;;5049846;28;20040;-93
2021/08/14 12:05:27;;;;;;;8.07;2.35;;;19.00;85.40;;;;;;5050125;28;20067;-93
2021/08/14 12:07:53;;;;;;;10.77;2.25;;;19.00;85.20;;;;;;5051480;28;20089;-95
2021/08/14 12:10:28;;;;;;;10.85;2.30;;;18.90;85.20;;;;;;5050179;28;20053;-95
2021/08/14 12:12:58;;;;;;;6.80;2.25;;;18.90;85.20;;;;;;5050790;28;20025;-95
2021/08/14 12:15:53;;;;;;;;;;;18.90;85.20;;;;;;5049698;28;20049;-95
2021/08/14 12:18:41;;;;;;;9.70;1.90;;;18.90;85.20;;;;;;5036868;28;20217;-95
2021/08/14 12:21:08;;;;;;;4.95;1.60;;;18.80;85.50;;;;;;5051088;28;20049;-95
2021/08/14 12:23:39;;;;;;;4.43;2.10;;;18.60;84.30;;;;;;5050076;28;20040;-96
2021/08/14 12:26:10;;;;;;;5.13;1.60;;;18.60;83.40;;;;;;5046502;28;20026;-95
2021/08/14 12:28:41;;;;;;;4.80;2.10;;;18.50;83.60;;;;;;5036615;28;20053;-94
2021/08/14 12:31:33;;;;;;;;;;;18.60;83.90;;;;;;5037801;28;20098;-94
2021/08/14 12:33:59;;;;;;;5.35;1.90;;;18.70;84.10;;;;;;5015353;28;19935;-95
2021/08/14 12:36:37;;;;;;;2.97;1.60;;;18.70;83.10;;;;;;5038361;28;20037;-94
2021/08/14 12:39:08;;;;;;;3.97;1.88;;;18.70;83.50;;;;;;5037020;28;20482;-95
2021/08/14 12:41:35;;;;;;;3.25;1.55;;;18.60;84.10;;;;;;5040621;28;20076;-96
2021/08/14 12:44:01;;;;;;;5.13;1.73;;;18.50;85.00;;;;;;5043838;28;20029;-96
2021/08/14 12:46:30;;;;;;;6.95;1.98;;;18.50;86.00;;;;;;5043835;28;20044;-96
2021/08/14 12:49:16;;;;;;;4.47;1.85;;;18.40;87.00;;;;;;5038742;28;20025;-95
2021/08/14 12:51:42;;;;;;;12.73;2.45;;;18.40;88.10;;;;;;5044119;28;20043;-95
2021/08/14 12:54:11;;;;;;;6.55;2.38;;;18.40;88.40;;;;;;5039744;28;20029;-95
2021/08/14 12:56:38;;;;;;;8.52;2.65;;;18.50;89.00;;;;;;5042828;28;20038;-96
2021/08/14 12:59:07;;;;;;;10.95;3.00;;;18.40;89.20;;;;;;5041886;28;20022;-96
2021/08/14 13:01:36;;;;;;;5.15;2.00;;;18.40;89.90;;;;;;5044025;28;20033;-94
2021/08/14 13:04:04;;;;;;;7.75;2.42;;;18.30;90.00;;;;;;5044841;28;20030;-94
2021/08/14 13:06:30;;;;;;;9.23;2.70;;;18.20;89.80;;;;;;5027299;28;20036;-95
2021/08/14 13:08:56;;;;;;;5.32;2.80;;;18.10;90.00;;;;;;5039998;28;20025;-95
2021/08/14 13:11:22;;;;;;;9.40;2.90;;;18.10;90.40;;;;;;5043631;28;20033;-95